Time;durP1;ratioP1;P1;durP2;ratioP2;P2;SDS_P1;SDS_P2;PMS_P1;PMS_P2;Temp;Humidity;BMP_temperature;BMP_pressure;BME280_temperature;BME280_humidity;BME280_pressure;Samples;Min_cycle;Max_cycle;Signal;HPM_P1;HPM_P2
2021/01/02 00:02:07;;;;;;;35.88;12.60;;;-1.50;99.90;;;;;;4202001;28;20233;-52
2021/01/02 00:04:24;;;;;;;39.90;13.52;;;-1.50;99.90;;;;;;4202052;28;20217;-52
2021/01/02 00:06:53;;;;;;;37.95;12.45;;;-1.50;99.90;;;;;;4201426;28;20270;-52
2021/01/02 00:09:01;;;;;;;33.70;12.75;;;-1.60;99.90;;;;;;4200726;28;20220;-52
2021/01/02 00:11:25;;;;;;;39.13;13.75;;;-1.60;99.90;;;;;;4201443;28;20213;-52
2021/01/02 00:13:33;;;;;;;35.80;13.67;;;-1.60;99.90;;;;;;4201574;28;20206;-52
2021/01/02 00:15:50;;;;;;;38.93;13.17;;;-1.70;99.90;;;;;;4201418;28;20490;-52
2021/01/02 00:18:16;;;;;;;43.35;13.95;;;-1.70;99.90;;;;;;4200985;28;20528;-52
2021/01/02 00:20:58;;;;;;;36.55;13.10;;;-1.70;99.90;;;;;;4201588;28;20404;-53
2021/01/02 00:23:00;;;;;;;39.60;13.37;;;-1.80;99.90;;;;;;4201651;28;20205;-53
2021/01/02 00:25:10;;;;;;;34.90;12.63;;;-1.80;99.90;;;;;;4201079;28;20493;-54
2021/01/02 00:27:21;;;;;;;39.37;12.30;;;-1.80;99.90;;;;;;4201838;28;20216;-53
2021/01/02 00:29:24;;;;;;;35.30;12.33;;;-1.90;99.90;;;;;;4201525;28;20945;-53
2021/01/02 00:31:52;;;;;;;33.53;11.57;;;-1.90;99.90;;;;;;4200956;28;20479;-53
2021/01/02 00:34:48;;;;;;;33.38;12.02;;;-1.90;99.90;;;;;;4201346;28;20229;-53
2021/01/02 00:36:58;;;;;;;34.47;12.05;;;-1.90;99.90;;;;;;4198596;28;20210;-55
2021/01/02 00:39:00;;;;;;;36.33;11.38;;;-1.90;99.90;;;;;;4200875;28;20205;-53
2021/01/02 00:41:05;;;;;;;33.38;11.57;;;-1.90;99.90;;;;;;4199873;28;20253;-52
2021/01/02 00:43:06;;;;;;;38.58;12.63;;;-2.00;99.90;;;;;;4201252;28;22041;-52
2021/01/02 00:45:10;;;;;;;38.92;11.63;;;-2.00;99.90;;;;;;4200342;28;20220;-52
2021/01/02 00:47:11;;;;;;;34.85;11.43;;;-2.00;99.90;;;;;;4201351;28;20221;-53
2021/01/02 00:49:14;;;;;;;30.25;12.13;;;-2.00;99.90;;;;;;4200205;28;20232;-53
2021/01/02 00:51:16;;;;;;;34.35;11.95;;;-2.00;99.90;;;;;;4201438;28;22080;-53
2021/01/02 00:53:37;;;;;;;32.53;12.30;;;-2.10;99.90;;;;;;4200668;28;20223;-52
2021/01/02 00:55:59;;;;;;;33.35;11.75;;;-2.10;99.90;;;;;;4200505;28;20237;-52
2021/01/02 00:58:08;;;;;;;31.55;11.93;;;-2.10;99.90;;;;;;4201176;28;20213;-52
2021/01/02 01:00:10;;;;;;;35.58;11.98;;;-2.20;99.90;;;;;;4201465;28;20262;-52
2021/01/02 01:02:39;;;;;;;32.42;11.45;;;-2.20;99.90;;;;;;4200471;28;20233;-52
2021/01/02 01:05:08;;;;;;;35.88;11.50;;;-2.10;99.90;;;;;;4190703;28;20224;-52
2021/01/02 01:07:16;;;;;;;36.45;12.23;;;-2.10;99.90;;;;;;4201483;28;20635;-51
2021/01/02 01:09:22;;;;;;;35.28;12.52;;;-2.10;99.90;;;;;;4199553;28;20212;-51
2021/01/02 01:11:30;;;;;;;32.33;12.23;;;-2.00;99.90;;;;;;4200321;28;20220;-52
2021/01/02 01:13:33;;;;;;;33.30;11.77;;;-2.00;99.90;;;;;;4199909;28;20216;-52
2021/01/02 01:15:35;;;;;;;38.80;12.52;;;-1.90;99.90;;;;;;4199935;28;21994;-52
2021/01/02 01:17:52;;;;;;;30.75;10.77;;;-1.80;99.90;;;;;;4201348;28;20675;-54
2021/01/02 01:19:58;;;;;;;30.60;10.35;;;-1.80;99.90;;;;;;4200754;28;20209;-51
2021/01/02 01:22:02;;;;;;;30.90;10.77;;;-1.70;99.90;;;;;;4200665;28;20229;-51
2021/01/02 01:24:12;;;;;;;32.65;11.15;;;-1.70;99.90;;;;;;4200602;28;20205;-51
2021/01/02 01:26:26;;;;;;;31.05;10.18;;;-1.60;99.90;;;;;;4200774;28;20212;-51
2021/01/02 01:28:33;;;;;;;31.63;10.90;;;-1.60;99.90;;;;;;4200821;28;20205;-51
2021/01/02 01:30:39;;;;;;;33.57;11.13;;;-1.50;99.90;;;;;;4201193;28;20224;-51
2021/01/02 01:32:44;;;;;;;31.67;10.70;;;-1.50;99.90;;;;;;4199733;28;20476;-51
2021/01/02 01:34:47;;;;;;;30.47;10.40;;;-1.40;99.90;;;;;;4201446;28;20491;-51
2021/01/02 01:36:49;;;;;;;28.40;10.90;;;-1.40;99.90;;;;;;4199670;28;20467;-51
2021/01/02 01:38:54;;;;;;;30.27;11.30;;;-1.40;99.90;;;;;;4201185;28;20477;-51
2021/01/02 01:41:02;;;;;;;28.67;10.40;;;-1.40;99.90;;;;;;4200406;28;20224;-51
2021/01/02 01:43:05;;;;;;;32.10;11.77;;;-1.40;99.90;;;;;;4200920;28;20548;-51
2021/01/02 01:45:23;;;;;;;28.35;10.63;;;-1.40;99.90;;;;;;4200632;28;20208;-51
2021/01/02 01:47:35;;;;;;;29.70;10.47;;;-1.30;99.90;;;;;;4200742;28;20632;-51
2021/01/02 01:50:21;;;;;;;34.87;12.20;;;-1.30;99.90;;;;;;4200408;28;20465;-51
2021/01/02 01:52:38;;;;;;;34.37;11.80;;;-1.30;99.90;;;;;;4200462;28;20468;-51
2021/01/02 01:55:05;;;;;;;36.40;12.10;;;-1.30;99.90;;;;;;4200699;28;20467;-51
2021/01/02 01:57:06;;;;;;;30.77;11.60;;;-1.30;99.90;;;;;;4200500;28;20216;-51
2021/01/02 01:59:23;;;;;;;37.73;12.70;;;-1.60;99.90;;;;;;4201048;28;22129;-51
2021/01/02 02:01:26;;;;;;;34.88;12.30;;;-1.40;99.90;;;;;;4200210;28;20478;-51
2021/01/02 02:03:33;;;;;;;41.00;13.85;;;-1.40;99.90;;;;;;4200488;28;20217;-51
2021/01/02 02:05:54;;;;;;;36.63;13.05;;;-1.40;99.90;;;;;;4201000;28;20211;-51
2021/01/02 02:08:00;;;;;;;36.65;12.88;;;-1.40;99.90;;;;;;4200773;28;20205;-51
2021/01/02 02:10:04;;;;;;;35.30;12.85;;;-1.40;99.90;;;;;;4200231;28;20650;-51
2021/01/02 02:12:14;;;;;;;32.05;11.93;;;-1.50;99.90;;;;;;4200237;28;20252;-52
2021/01/02 02:14:17;;;;;;;33.73;13.47;;;-1.40;99.90;;;;;;4200560;28;20289;-51
2021/01/02 02:16:27;;;;;;;40.58;13.15;;;-1.40;99.90;;;;;;4199835;28;20485;-51
2021/01/02 02:18:30;;;;;;;45.43;15.37;;;-1.40;99.90;;;;;;4199959;28;20209;-52
2021/01/02 02:20:33;;;;;;;41.78;14.68;;;-1.30;99.90;;;;;;4200976;28;20493;-51
2021/01/02 02:22:37;;;;;;;43.17;13.73;;;-1.30;99.90;;;;;;4202494;28;20226;-52
2021/01/02 02:24:42;;;;;;;33.65;12.35;;;-1.30;99.90;;;;;;4203483;28;20213;-52
2021/01/02 02:26:46;;;;;;;33.30;12.67;;;-1.30;99.90;;;;;;4202703;28;20274;-52
2021/01/02 02:29:20;;;;;;;37.92;13.48;;;-1.30;99.90;;;;;;4203505;28;20910;-52
2021/01/02 02:31:23;;;;;;;33.78;12.38;;;-1.30;99.90;;;;;;4203865;28;20223;-51
2021/01/02 02:33:28;;;;;;;41.83;13.45;;;-1.20;99.90;;;;;;4202654;28;20242;-52
2021/01/02 02:35:31;;;;;;;39.85;14.38;;;-1.20;99.90;;;;;;4203379;28;20210;-52
2021/01/02 02:37:32;;;;;;;35.65;13.00;;;-1.20;99.90;;;;;;4203131;28;20290;-52
2021/01/02 02:39:34;;;;;;;37.20;14.07;;;-1.20;99.90;;;;;;4203077;28;20237;-52
2021/01/02 02:41:40;;;;;;;37.50;13.23;;;-1.10;99.90;;;;;;4202789;28;20548;-52
2021/01/02 02:43:42;;;;;;;40.45;13.32;;;-1.10;99.90;;;;;;4204820;28;20556;-56
2021/01/02 02:45:46;;;;;;;42.65;13.52;;;-1.10;99.90;;;;;;4203122;28;20205;-53
2021/01/02 02:47:51;;;;;;;31.93;11.97;;;-1.10;99.90;;;;;;4202195;28;20288;-52
2021/01/02 02:49:58;;;;;;;40.67;12.90;;;-1.10;99.90;;;;;;4203064;28;20942;-52
2021/01/02 02:52:10;;;;;;;31.57;11.47;;;-1.00;99.90;;;;;;4203413;28;20902;-52
2021/01/02 02:54:12;;;;;;;39.23;12.63;;;-1.00;99.90;;;;;;4202904;28;20467;-52
2021/01/02 02:56:13;;;;;;;32.77;11.87;;;-1.00;99.90;;;;;;4203568;28;20492;-52
2021/01/02 02:58:14;;;;;;;34.67;12.17;;;-1.00;99.90;;;;;;4203229;28;20818;-52
2021/01/02 03:00:18;;;;;;;38.47;13.43;;;-1.00;99.90;;;;;;4201416;28;20475;-52
2021/01/02 03:02:21;;;;;;;35.40;12.30;;;-1.00;99.90;;;;;;4203128;28;20489;-52
2021/01/02 03:04:22;;;;;;;36.50;12.33;;;-1.00;99.90;;;;;;4202924;28;21132;-51
2021/01/02 03:06:24;;;;;;;39.83;12.70;;;-0.90;99.90;;;;;;4203116;28;20463;-52
2021/01/02 03:08:27;;;;;;;39.03;12.67;;;-0.90;99.90;;;;;;4203619;28;20646;-52
2021/01/02 03:10:28;;;;;;;35.13;12.20;;;-0.90;99.90;;;;;;4203197;28;20606;-52
2021/01/02 03:12:30;;;;;;;33.70;12.60;;;-0.90;99.90;;;;;;4202739;28;20459;-52
2021/01/02 03:14:31;;;;;;;33.07;12.27;;;-0.90;99.90;;;;;;4202286;28;20471;-52
2021/01/02 03:16:32;;;;;;;30.43;12.00;;;-0.90;99.90;;;;;;4202529;28;20479;-52
2021/01/02 03:18:34;;;;;;;33.33;11.70;;;-0.80;99.90;;;;;;4202886;28;20924;-50
2021/01/02 03:20:35;;;;;;;35.43;12.60;;;-0.80;99.90;;;;;;4202684;28;20468;-52
2021/01/02 03:22:42;;;;;;;33.20;11.47;;;-0.80;99.90;;;;;;4202648;28;20491;-52
2021/01/02 03:24:44;;;;;;;35.53;12.77;;;-0.80;99.90;;;;;;4201851;28;20471;-52
2021/01/02 03:26:46;;;;;;;39.33;12.70;;;-0.80;99.90;;;;;;4202449;28;20876;-53
2021/01/02 03:28:50;;;;;;;32.47;12.17;;;-0.80;99.90;;;;;;4201881;28;20781;-49
2021/01/02 03:30:52;;;;;;;40.17;13.13;;;-0.80;99.90;;;;;;4203085;28;20479;-51
2021/01/02 03:32:53;;;;;;;35.53;12.43;;;-0.80;99.90;;;;;;4201260;28;20459;-51
2021/01/02 03:34:55;;;;;;;37.33;12.73;;;-0.80;99.90;;;;;;4201570;28;20478;-51
2021/01/02 03:36:56;;;;;;;38.87;13.27;;;-0.80;99.90;;;;;;4202255;28;20467;-51
2021/01/02 03:38:59;;;;;;;34.03;11.97;;;-0.80;99.90;;;;;;4201750;28;20495;-52
2021/01/02 03:41:01;;;;;;;34.53;13.37;;;-0.80;99.90;;;;;;4202543;28;20485;-51
2021/01/02 03:43:02;;;;;;;33.30;12.30;;;-0.90;99.90;;;;;;4201401;28;20541;-55
2021/01/02 03:45:06;;;;;;;31.93;11.70;;;-0.80;99.90;;;;;;4201922;28;20463;-51
2021/01/02 03:47:07;;;;;;;35.00;12.13;;;-0.80;99.90;;;;;;4202281;28;20482;-52
2021/01/02 03:49:09;;;;;;;35.93;11.93;;;-0.80;99.90;;;;;;4201897;28;20939;-52
2021/01/02 03:51:10;;;;;;;31.50;11.73;;;-0.80;99.90;;;;;;4201531;28;20470;-51
2021/01/02 03:53:12;;;;;;;34.60;12.73;;;-0.80;99.90;;;;;;4201150;28;20511;-52
2021/01/02 03:55:13;;;;;;;32.10;11.80;;;-0.80;99.90;;;;;;4201802;28;20479;-51
2021/01/02 03:57:15;;;;;;;31.77;12.17;;;-0.80;99.90;;;;;;4201070;28;20463;-52
2021/01/02 03:59:17;;;;;;;33.90;11.93;;;-0.80;99.90;;;;;;4202086;28;20469;-51
2021/01/02 04:01:18;;;;;;;32.23;11.57;;;-0.80;99.90;;;;;;4202368;28;20475;-51
2021/01/02 04:03:19;;;;;;;35.80;11.77;;;-0.80;99.90;;;;;;4201870;28;20467;-51
2021/01/02 04:05:21;;;;;;;37.63;12.77;;;-0.80;99.90;;;;;;4202412;28;20480;-51
2021/01/02 04:07:22;;;;;;;31.90;12.17;;;-0.80;99.90;;;;;;4202740;28;20520;-52
2021/01/02 04:09:23;;;;;;;30.57;12.03;;;-0.80;99.90;;;;;;4202041;28;20475;-51
2021/01/02 04:11:24;;;;;;;36.80;12.50;;;-0.80;99.90;;;;;;4202070;28;20459;-51
2021/01/02 04:13:27;;;;;;;38.63;13.17;;;-0.80;99.90;;;;;;4202785;28;20489;-52
2021/01/02 04:15:28;;;;;;;32.53;11.90;;;-0.80;99.90;;;;;;4200658;28;20480;-51
2021/01/02 04:17:29;;;;;;;35.17;11.60;;;-0.80;99.90;;;;;;4200791;28;20467;-51
2021/01/02 04:19:32;;;;;;;31.20;11.63;;;-0.80;99.90;;;;;;4202285;28;21319;-51
2021/01/02 04:21:34;;;;;;;32.73;11.77;;;-0.80;99.90;;;;;;4201665;28;20534;-51
2021/01/02 04:23:35;;;;;;;38.13;13.07;;;-0.80;99.90;;;;;;4201639;28;20463;-51
2021/01/02 04:25:39;;;;;;;34.40;11.90;;;-0.80;99.90;;;;;;4201396;28;20493;-51
2021/01/02 04:27:40;;;;;;;36.10;12.20;;;-0.70;99.90;;;;;;4202234;28;20484;-51
2021/01/02 04:29:43;;;;;;;28.73;11.83;;;-0.70;99.90;;;;;;4201658;28;20497;-51
2021/01/02 04:31:44;;;;;;;33.17;12.60;;;-0.70;99.90;;;;;;4201575;28;20880;-52
2021/01/02 04:33:45;;;;;;;33.30;12.47;;;-0.70;99.90;;;;;;4201009;28;20463;-51
2021/01/02 04:35:47;;;;;;;35.47;11.73;;;-0.70;99.90;;;;;;4201401;28;20471;-51
2021/01/02 04:37:48;;;;;;;34.90;12.00;;;-0.70;99.90;;;;;;4201154;28;20475;-51
2021/01/02 04:39:49;;;;;;;34.50;12.37;;;-0.70;99.90;;;;;;4200116;28;20464;-51
2021/01/02 04:41:51;;;;;;;39.37;12.60;;;-0.70;99.90;;;;;;4200714;28;20491;-51
2021/01/02 04:43:53;;;;;;;34.00;11.40;;;-0.70;99.90;;;;;;4200315;28;20475;-51
2021/01/02 04:45:56;;;;;;;31.27;12.17;;;-0.70;99.90;;;;;;4201199;28;20454;-51
2021/01/02 04:48:05;;;;;;;39.07;12.57;;;-0.70;99.90;;;;;;4200785;28;20482;-52
2021/01/02 04:50:08;;;;;;;36.13;11.83;;;-0.60;99.90;;;;;;4200864;28;20471;-52
2021/01/02 04:52:11;;;;;;;29.77;11.17;;;-0.60;99.90;;;;;;4201500;28;20951;-54
2021/01/02 04:54:14;;;;;;;38.00;13.20;;;-0.60;99.90;;;;;;4201370;28;20459;-55
2021/01/02 04:56:16;;;;;;;36.50;13.13;;;-0.70;99.90;;;;;;4201621;28;20571;-51
2021/01/02 04:58:18;;;;;;;32.33;12.07;;;-0.70;99.90;;;;;;4201856;28;20480;-52
2021/01/02 05:00:23;;;;;;;33.40;12.27;;;-0.60;99.90;;;;;;4200600;28;20462;-51
2021/01/02 05:02:29;;;;;;;33.23;11.53;;;-0.70;99.90;;;;;;4201054;28;20503;-51
2021/01/02 05:04:30;;;;;;;33.60;11.90;;;-0.70;99.90;;;;;;4200333;28;20506;-51
2021/01/02 05:06:32;;;;;;;31.10;11.03;;;-0.60;99.90;;;;;;4199154;28;20491;-51
2021/01/02 05:08:33;;;;;;;31.97;11.67;;;-0.60;99.90;;;;;;4200599;28;20464;-51
2021/01/02 05:10:34;;;;;;;33.83;11.60;;;-0.60;99.90;;;;;;4201190;28;20483;-52
2021/01/02 05:12:36;;;;;;;30.60;11.43;;;-0.60;99.90;;;;;;4200091;28;20474;-51
2021/01/02 05:14:57;;;;;;;34.50;11.10;;;-0.60;99.90;;;;;;4200183;28;20475;-51
2021/01/02 05:16:58;;;;;;;29.37;10.80;;;-0.60;99.90;;;;;;4200281;28;20515;-51
2021/01/02 05:19:02;;;;;;;30.83;11.27;;;-0.50;99.90;;;;;;4200975;28;20482;-51
2021/01/02 05:21:06;;;;;;;31.40;11.77;;;-0.60;99.90;;;;;;4199886;28;20476;-51
2021/01/02 05:23:08;;;;;;;31.00;11.07;;;-0.60;99.90;;;;;;4200174;28;20793;-51
2021/01/02 05:25:13;;;;;;;26.13;10.43;;;-0.50;99.90;;;;;;4200141;28;20472;-51
2021/01/02 05:27:14;;;;;;;31.97;11.00;;;-0.50;99.90;;;;;;4199937;28;20482;-51
2021/01/02 05:29:18;;;;;;;28.47;10.60;;;-0.50;99.90;;;;;;4201307;28;20463;-51
2021/01/02 05:31:26;;;;;;;29.03;11.23;;;-0.50;99.90;;;;;;4199890;28;20525;-52
2021/01/02 05:33:27;;;;;;;29.73;11.20;;;-0.50;99.90;;;;;;4199608;28;20467;-51
2021/01/02 05:35:33;;;;;;;35.27;11.73;;;-0.40;99.90;;;;;;4200374;28;20468;-51
2021/01/02 05:37:35;;;;;;;31.63;11.23;;;-0.40;99.90;;;;;;4200336;28;20471;-51
2021/01/02 05:39:38;;;;;;;36.33;12.53;;;-0.40;99.90;;;;;;4200817;28;20467;-51
2021/01/02 05:41:52;;;;;;;30.90;12.17;;;-0.40;99.90;;;;;;4200703;28;20529;-51
2021/01/02 05:43:53;;;;;;;36.80;12.33;;;-0.50;99.90;;;;;;4200840;28;20467;-51
2021/01/02 05:45:55;;;;;;;34.83;12.07;;;-0.50;99.90;;;;;;4200147;28;21087;-51
2021/01/02 05:47:57;;;;;;;35.53;12.27;;;-0.50;99.90;;;;;;4200788;28;20475;-51
2021/01/02 05:50:00;;;;;;;36.23;13.50;;;-0.50;99.90;;;;;;4200941;28;20530;-51
2021/01/02 05:52:04;;;;;;;35.00;12.77;;;-0.50;99.90;;;;;;4199846;28;20464;-51
2021/01/02 05:54:08;;;;;;;32.07;12.60;;;-0.40;99.90;;;;;;4200666;28;20479;-51
2021/01/02 05:56:11;;;;;;;34.43;12.20;;;-0.40;99.90;;;;;;4203294;28;20501;-51
2021/01/02 05:58:16;;;;;;;38.83;12.03;;;-0.40;99.90;;;;;;4204056;28;20473;-51
2021/01/02 06:00:20;;;;;;;34.20;11.87;;;-0.40;99.90;;;;;;4203465;28;20476;-51
2021/01/02 06:02:22;;;;;;;33.33;11.33;;;-0.40;99.90;;;;;;4204266;28;20981;-52
2021/01/02 06:04:24;;;;;;;27.07;11.47;;;-0.40;99.90;;;;;;4203445;28;20466;-52
2021/01/02 06:06:25;;;;;;;27.80;11.63;;;-0.30;99.90;;;;;;4204306;28;20470;-55
2021/01/02 06:08:38;;;;;;;34.60;11.90;;;-0.30;99.90;;;;;;4203240;28;20467;-51
2021/01/02 06:10:40;;;;;;;25.80;10.30;;;-0.30;99.90;;;;;;4203752;28;20483;-51
2021/01/02 06:12:43;;;;;;;26.40;10.47;;;-0.30;99.90;;;;;;4202447;28;20483;-51
2021/01/02 06:14:44;;;;;;;33.27;12.03;;;-0.30;99.90;;;;;;4203608;28;20459;-51
2021/01/02 06:16:49;;;;;;;32.37;12.37;;;-0.30;99.90;;;;;;4203896;28;20474;-52
2021/01/02 06:18:51;;;;;;;33.10;12.23;;;-0.30;99.90;;;;;;4203094;28;20487;-51
2021/01/02 06:20:52;;;;;;;31.70;11.70;;;-0.20;99.90;;;;;;4204141;28;20982;-49
2021/01/02 06:22:53;;;;;;;32.23;11.63;;;-0.30;99.90;;;;;;4203661;28;20487;-51
2021/01/02 06:24:55;;;;;;;28.63;11.53;;;-0.20;99.90;;;;;;4203771;28;20492;-53
2021/01/02 06:26:59;;;;;;;26.53;11.50;;;-0.20;99.90;;;;;;4203897;28;21003;-51
2021/01/02 06:29:01;;;;;;;31.60;11.03;;;-0.20;99.90;;;;;;4204205;28;20535;-51
2021/01/02 06:31:05;;;;;;;30.40;11.37;;;-0.20;99.90;;;;;;4202048;28;20462;-51
2021/01/02 06:33:06;;;;;;;30.13;11.03;;;-0.20;99.90;;;;;;4203189;28;20548;-51
2021/01/02 06:35:21;;;;;;;28.83;11.27;;;-0.20;99.90;;;;;;4202994;28;20487;-52
2021/01/02 06:37:22;;;;;;;27.73;11.40;;;-0.10;99.90;;;;;;4204221;28;20498;-51
2021/01/02 06:39:24;;;;;;;27.77;10.30;;;-0.10;99.90;;;;;;4202933;28;20584;-51
2021/01/02 06:41:28;;;;;;;28.67;10.97;;;-0.10;99.90;;;;;;4203284;28;20467;-52
2021/01/02 06:43:38;;;;;;;21.73;10.77;;;-0.10;99.90;;;;;;4202964;28;20488;-51
2021/01/02 06:45:50;;;;;;;25.83;10.60;;;-0.10;99.90;;;;;;4203061;28;20946;-51
2021/01/02 06:47:51;;;;;;;26.47;9.53;;;0.00;99.90;;;;;;4204455;28;20482;-51
2021/01/02 06:49:53;;;;;;;25.53;9.90;;;-0.10;99.90;;;;;;4202677;28;20462;-51
2021/01/02 06:51:54;;;;;;;26.47;10.30;;;-0.10;99.90;;;;;;4203076;28;20470;-50
2021/01/02 06:53:56;;;;;;;24.80;10.40;;;-0.10;99.90;;;;;;4202010;28;20483;-50
2021/01/02 06:55:59;;;;;;;27.57;10.60;;;-0.10;99.90;;;;;;4203057;28;20491;-50
2021/01/02 06:58:16;;;;;;;27.53;10.27;;;-0.10;99.90;;;;;;4203003;28;20553;-51
2021/01/02 07:00:22;;;;;;;26.03;9.80;;;0.00;99.90;;;;;;4202268;28;20471;-51
2021/01/02 07:02:32;;;;;;;25.87;10.83;;;0.00;99.90;;;;;;4202931;28;20490;-51
2021/01/02 07:04:38;;;;;;;24.73;10.33;;;-0.10;99.90;;;;;;4202987;28;20471;-51
2021/01/02 07:06:43;;;;;;;29.67;11.23;;;0.00;99.90;;;;;;4202164;28;20468;-51
2021/01/02 07:08:45;;;;;;;28.37;10.57;;;0.00;99.90;;;;;;4202912;28;20556;-51
2021/01/02 07:10:46;;;;;;;30.73;11.23;;;0.00;99.90;;;;;;4202922;28;20475;-51
2021/01/02 07:12:47;;;;;;;26.43;11.13;;;0.00;99.90;;;;;;4203168;28;20455;-51
2021/01/02 07:14:49;;;;;;;29.50;10.93;;;0.00;99.90;;;;;;4203293;28;20474;-51
2021/01/02 07:16:56;;;;;;;25.00;9.87;;;0.00;99.90;;;;;;4203441;28;20806;-51
2021/01/02 07:18:57;;;;;;;30.00;9.90;;;0.00;99.90;;;;;;4203068;28;20485;-51
2021/01/02 07:20:59;;;;;;;27.50;10.90;;;0.00;99.90;;;;;;4201919;28;21180;-51
2021/01/02 07:23:00;;;;;;;24.10;9.67;;;0.10;99.90;;;;;;4202044;28;20497;-51
2021/01/02 07:25:08;;;;;;;30.03;11.40;;;0.10;99.90;;;;;;4202480;28;20518;-51
2021/01/02 07:27:11;;;;;;;28.77;11.27;;;0.10;99.90;;;;;;4202354;28;20473;-51
2021/01/02 07:29:19;;;;;;;28.17;10.37;;;0.10;99.90;;;;;;4201559;28;20459;-51
2021/01/02 07:31:22;;;;;;;33.37;12.40;;;0.10;99.90;;;;;;4201285;28;20927;-51
2021/01/02 07:33:23;;;;;;;27.53;10.97;;;0.10;99.90;;;;;;4202392;28;20494;-51
2021/01/02 07:35:25;;;;;;;29.53;10.30;;;0.10;99.90;;;;;;4202029;28;20463;-51
2021/01/02 07:37:28;;;;;;;27.20;10.97;;;0.20;99.90;;;;;;4202030;28;20490;-51
2021/01/02 07:39:29;;;;;;;29.70;11.30;;;0.20;99.90;;;;;;4202608;28;20465;-51
2021/01/02 07:41:33;;;;;;;27.17;11.73;;;0.20;99.90;;;;;;4201274;28;20516;-51
2021/01/02 07:43:35;;;;;;;34.97;11.30;;;0.20;99.90;;;;;;4202977;28;20503;-53
2021/01/02 07:45:36;;;;;;;30.57;11.80;;;0.20;99.90;;;;;;4202167;28;20472;-53
2021/01/02 07:47:45;;;;;;;28.07;11.27;;;0.20;99.90;;;;;;4201568;28;20471;-54
2021/01/02 07:49:46;;;;;;;34.93;12.57;;;0.20;99.90;;;;;;4201341;28;20490;-53
2021/01/02 07:51:49;;;;;;;32.10;12.37;;;0.20;99.90;;;;;;4202101;28;21189;-53
2021/01/02 07:53:53;;;;;;;31.20;12.47;;;0.20;99.90;;;;;;4201062;28;20548;-54
2021/01/02 07:55:54;;;;;;;34.70;11.97;;;0.30;99.90;;;;;;4201982;28;20492;-54
2021/01/02 07:57:56;;;;;;;31.53;12.37;;;0.30;99.90;;;;;;4202223;28;20470;-54
2021/01/02 07:59:57;;;;;;;34.83;12.67;;;0.30;99.90;;;;;;4202215;28;20486;-55
2021/01/02 08:02:00;;;;;;;31.87;12.57;;;0.30;99.90;;;;;;4200569;28;20901;-54
2021/01/02 08:04:03;;;;;;;33.33;13.07;;;0.30;99.90;;;;;;4201460;28;20521;-54
2021/01/02 08:06:08;;;;;;;33.53;12.13;;;0.30;99.90;;;;;;4202603;28;20509;-54
2021/01/02 08:08:10;;;;;;;34.13;11.77;;;0.30;99.90;;;;;;4201630;28;20500;-54
2021/01/02 08:10:13;;;;;;;34.07;12.43;;;0.30;99.90;;;;;;4201375;28;20467;-54
2021/01/02 08:12:15;;;;;;;36.17;12.90;;;0.40;99.90;;;;;;4203037;28;20482;-54
2021/01/02 08:14:16;;;;;;;30.13;11.63;;;0.40;99.90;;;;;;4201988;28;20543;-54
2021/01/02 08:16:18;;;;;;;33.70;12.83;;;0.40;99.90;;;;;;4201918;28;20462;-54
2021/01/02 08:18:19;;;;;;;28.43;11.23;;;0.40;99.90;;;;;;4201830;28;20214;-54
2021/01/02 08:20:21;;;;;;;28.57;11.63;;;0.40;99.90;;;;;;4200476;28;20483;-54
2021/01/02 08:22:35;;;;;;;29.47;11.13;;;0.40;99.90;;;;;;4200552;28;20488;-55
2021/01/02 08:24:37;;;;;;;30.00;12.37;;;0.40;99.90;;;;;;4201746;28;20468;-54
2021/01/02 08:26:39;;;;;;;31.97;12.87;;;0.40;99.90;;;;;;4201263;28;20954;-54
2021/01/02 08:28:40;;;;;;;36.07;12.23;;;0.40;99.90;;;;;;4201479;28;20584;-53
2021/01/02 08:30:42;;;;;;;42.80;13.50;;;0.40;99.90;;;;;;4201830;28;20479;-53
2021/01/02 08:32:46;;;;;;;33.73;13.93;;;0.50;99.90;;;;;;4202410;28;20475;-53
2021/01/02 08:34:47;;;;;;;30.97;12.63;;;0.50;99.90;;;;;;4201598;28;20539;-53
2021/01/02 08:36:50;;;;;;;32.27;13.17;;;0.50;99.90;;;;;;4200316;28;20468;-53
2021/01/02 08:38:59;;;;;;;35.07;12.47;;;0.60;99.90;;;;;;4202644;28;20552;-53
2021/01/02 08:41:00;;;;;;;37.43;12.57;;;0.60;99.90;;;;;;4200125;28;20470;-53
2021/01/02 08:43:02;;;;;;;30.07;12.47;;;0.60;99.90;;;;;;4200383;28;20488;-53
2021/01/02 08:45:05;;;;;;;31.23;12.40;;;0.60;99.90;;;;;;4200534;28;20483;-54
2021/01/02 08:47:07;;;;;;;29.67;11.40;;;0.60;99.90;;;;;;4201085;28;20479;-53
2021/01/02 08:49:08;;;;;;;28.80;11.77;;;0.60;99.90;;;;;;4200517;28;20477;-53
2021/01/02 08:51:21;;;;;;;28.30;11.90;;;0.70;99.90;;;;;;4200711;28;20468;-53
2021/01/02 08:53:27;;;;;;;31.10;11.70;;;0.70;99.90;;;;;;4201323;28;20463;-53
2021/01/02 08:55:30;;;;;;;28.30;11.37;;;0.80;99.90;;;;;;4201040;28;20577;-53
2021/01/02 08:57:33;;;;;;;27.47;11.07;;;0.80;99.90;;;;;;4201500;28;20467;-53
2021/01/02 08:59:34;;;;;;;26.60;10.87;;;0.80;99.90;;;;;;4200278;28;20460;-54
2021/01/02 09:01:35;;;;;;;27.67;11.47;;;0.90;99.90;;;;;;4200711;28;21090;-53
2021/01/02 09:03:37;;;;;;;28.37;10.57;;;0.90;99.90;;;;;;4201629;28;20540;-53
2021/01/02 09:05:39;;;;;;;30.37;11.87;;;1.00;99.90;;;;;;4199468;28;20473;-54
2021/01/02 09:07:52;;;;;;;29.20;11.13;;;1.00;99.90;;;;;;4199568;28;20474;-54
2021/01/02 09:10:13;;;;;;;27.03;11.57;;;1.00;99.90;;;;;;4200058;28;20476;-53
2021/01/02 09:12:19;;;;;;;24.70;9.83;;;1.00;99.90;;;;;;4199111;28;20548;-54
2021/01/02 09:14:21;;;;;;;26.33;11.17;;;1.10;99.90;;;;;;4200916;28;20492;-54
2021/01/02 09:16:22;;;;;;;28.13;10.83;;;1.10;99.90;;;;;;4200108;28;20473;-54
2021/01/02 09:18:38;;;;;;;23.07;9.70;;;1.20;99.90;;;;;;4199752;28;20471;-54
2021/01/02 09:20:39;;;;;;;24.87;10.70;;;1.20;99.90;;;;;;4200149;28;20486;-54
2021/01/02 09:22:51;;;;;;;21.67;10.03;;;1.30;99.90;;;;;;4199258;28;20492;-54
2021/01/02 09:25:11;;;;;;;22.23;9.70;;;1.30;99.90;;;;;;4200817;28;20537;-54
2021/01/02 09:27:13;;;;;;;22.23;9.23;;;1.30;99.90;;;;;;4200369;28;20469;-54
2021/01/02 09:29:16;;;;;;;19.97;8.83;;;1.40;99.90;;;;;;4200182;28;20465;-56
2021/01/02 09:31:17;;;;;;;20.80;9.00;;;1.40;99.90;;;;;;4200565;28;20923;-54
2021/01/02 09:33:19;;;;;;;24.47;9.93;;;1.50;99.90;;;;;;4200958;28;20953;-55
2021/01/02 09:35:21;;;;;;;23.87;10.90;;;1.50;99.90;;;;;;4201351;28;20469;-54
2021/01/02 09:37:22;;;;;;;28.00;11.43;;;1.50;99.90;;;;;;4199388;28;20484;-54
2021/01/02 09:39:23;;;;;;;27.67;11.30;;;1.50;99.90;;;;;;4200141;28;20917;-55
2021/01/02 09:41:27;;;;;;;23.43;10.63;;;1.60;99.90;;;;;;4200121;28;20506;-54
2021/01/02 09:43:28;;;;;;;23.27;9.77;;;1.60;99.90;;;;;;4200784;28;20485;-54
2021/01/02 09:45:30;;;;;;;26.87;11.60;;;1.70;99.90;;;;;;4199397;28;20499;-55
2021/01/02 09:47:31;;;;;;;27.97;11.57;;;1.70;99.90;;;;;;4199295;28;20558;-54
2021/01/02 09:49:32;;;;;;;24.93;10.97;;;1.60;99.90;;;;;;4199513;28;20810;-54
2021/01/02 09:51:34;;;;;;;28.67;11.70;;;1.60;99.90;;;;;;4198866;28;20551;-55
2021/01/02 09:53:35;;;;;;;26.40;10.93;;;1.70;99.90;;;;;;4200078;28;20456;-55
2021/01/02 09:55:37;;;;;;;24.90;10.60;;;1.70;99.90;;;;;;4199126;28;20516;-54
2021/01/02 09:57:39;;;;;;;21.80;10.20;;;1.80;99.90;;;;;;4200682;28;20856;-55
2021/01/02 09:59:43;;;;;;;24.40;10.37;;;1.80;99.90;;;;;;4200215;28;20513;-56
2021/01/02 10:01:44;;;;;;;26.00;10.70;;;1.90;99.90;;;;;;4200034;28;20471;-55
2021/01/02 10:03:45;;;;;;;22.03;9.47;;;2.00;99.90;;;;;;4199044;28;20489;-55
2021/01/02 10:05:47;;;;;;;21.93;10.57;;;2.00;99.90;;;;;;4200732;28;20477;-55
2021/01/02 10:07:48;;;;;;;24.00;10.40;;;2.10;99.90;;;;;;4200101;28;20470;-55
2021/01/02 10:09:49;;;;;;;22.60;9.83;;;2.10;99.90;;;;;;4200560;28;20462;-55
2021/01/02 10:11:51;;;;;;;24.87;10.47;;;2.20;99.90;;;;;;4200895;28;20946;-56
2021/01/02 10:13:53;;;;;;;26.27;11.13;;;2.20;99.90;;;;;;4199497;28;20551;-55
2021/01/02 10:15:54;;;;;;;23.07;10.37;;;2.20;99.90;;;;;;4199492;28;20828;-55
2021/01/02 10:17:56;;;;;;;27.73;11.20;;;2.20;99.90;;;;;;4200325;28;20473;-55
2021/01/02 10:19:59;;;;;;;23.87;10.27;;;2.20;99.90;;;;;;4200066;28;20967;-55
2021/01/02 10:22:01;;;;;;;26.47;10.23;;;2.20;99.90;;;;;;4199478;28;20518;-56
2021/01/02 10:24:02;;;;;;;27.90;11.80;;;2.20;99.90;;;;;;4200583;28;20485;-55
2021/01/02 10:26:03;;;;;;;23.07;10.83;;;2.30;99.90;;;;;;4200525;28;20470;-55
2021/01/02 10:28:05;;;;;;;24.50;11.30;;;2.40;99.90;;;;;;4199720;28;20458;-55
2021/01/02 10:30:10;;;;;;;24.30;10.87;;;2.40;99.90;;;;;;4201014;28;20965;-55
2021/01/02 10:32:12;;;;;;;20.50;9.80;;;2.50;99.90;;;;;;4198925;28;20501;-57
2021/01/02 10:34:15;;;;;;;23.10;10.50;;;2.60;99.90;;;;;;4200686;28;20481;-55
2021/01/02 10:36:17;;;;;;;26.60;11.27;;;2.70;99.90;;;;;;4199557;28;20496;-60
2021/01/02 10:38:18;;;;;;;26.37;10.97;;;2.70;99.90;;;;;;4200111;28;20539;-55